Granger, Iowa
Current Conditions -  °F | °C
As of 10:35 PM on Sunday 25 Jan 2015 (Local Time) from KIKV Reporting Station
Overcast Overcast  
Wind Chill: -3°   Ceiling: 2300
Heat Index:   Visibility: 10mi
Dew Point: -4°   Wind: 6mph
Humidity: 75%   Direction: 290°WNW
Pressure: 30.08"   Gusts: NA
Location:  41.76°N, 93.82°W
Report Text: KIKV 260435Z AUTO 29005KT 10SM OVC023 M00/M04 A3008 RMK AO2
Loading
Personal Weather Stations






























Interactive Weather Map New forecast layout! Learn more

10-Day Weather Forecast

Advertisements
Track Severe Weather on mobile